sensor_id;sensor_type;location;lat;lon;timestamp;P1;durP1;ratioP1;P2;durP2;ratioP2
60917;SDS011;46792;38.854;-9.384;2023-04-15T00:04:02;17.73;;;3.78;;
60917;SDS011;46792;38.854;-9.384;2023-04-15T00:06:21;19.05;;;4.88;;
60917;SDS011;46792;38.854;-9.384;2023-04-15T00:08:22;14.25;;;3.28;;
60917;SDS011;46792;38.854;-9.384;2023-04-15T00:10:23;20.17;;;3.30;;
60917;SDS011;46792;38.854;-9.384;2023-04-15T00:12:24;24.52;;;4.00;;
60917;SDS011;46792;38.854;-9.384;2023-04-15T00:14:26;23.08;;;4.07;;
60917;SDS011;46792;38.854;-9.384;2023-04-15T00:16:27;17.40;;;4.40;;
60917;SDS011;46792;38.854;-9.384;2023-04-15T00:18:28;19.42;;;4.13;;
60917;SDS011;46792;38.854;-9.384;2023-04-15T00:20:28;26.70;;;4.03;;
60917;SDS011;46792;38.854;-9.384;2023-04-15T00:22:29;15.65;;;3.55;;
60917;SDS011;46792;38.854;-9.384;2023-04-15T00:24:30;9.63;;;2.83;;
60917;SDS011;46792;38.854;-9.384;2023-04-15T00:28:51;26.38;;;4.65;;
60917;SDS011;46792;38.854;-9.384;2023-04-15T00:30:52;11.57;;;2.85;;
60917;SDS011;46792;38.854;-9.384;2023-04-15T00:32:53;14.52;;;3.13;;
60917;SDS011;46792;38.854;-9.384;2023-04-15T00:34:54;6.75;;;2.63;;
60917;SDS011;46792;38.854;-9.384;2023-04-15T00:36:55;11.77;;;2.97;;
60917;SDS011;46792;38.854;-9.384;2023-04-15T00:38:56;10.23;;;2.85;;
60917;SDS011;46792;38.854;-9.384;2023-04-15T00:40:56;12.60;;;3.63;;
60917;SDS011;46792;38.854;-9.384;2023-04-15T00:42:58;18.90;;;2.75;;
60917;SDS011;46792;38.854;-9.384;2023-04-15T00:44:59;16.85;;;3.15;;
60917;SDS011;46792;38.854;-9.384;2023-04-15T00:49:38;15.40;;;3.17;;
60917;SDS011;46792;38.854;-9.384;2023-04-15T00:51:51;15.75;;;3.28;;
60917;SDS011;46792;38.854;-9.384;2023-04-15T00:53:58;3.83;;;2.33;;
60917;SDS011;46792;38.854;-9.384;2023-04-15T00:55:59;7.43;;;2.25;;
60917;SDS011;46792;38.854;-9.384;2023-04-15T00:58:00;8.20;;;2.40;;
60917;SDS011;46792;38.854;-9.384;2023-04-15T01:00:01;8.65;;;1.92;;
60917;SDS011;46792;38.854;-9.384;2023-04-15T01:02:04;8.95;;;2.72;;
60917;SDS011;46792;38.854;-9.384;2023-04-15T01:04:04;8.70;;;2.42;;
60917;SDS011;46792;38.854;-9.384;2023-04-15T01:06:06;9.30;;;2.10;;
60917;SDS011;46792;38.854;-9.384;2023-04-15T01:08:07;7.60;;;2.03;;
60917;SDS011;46792;38.854;-9.384;2023-04-15T01:10:08;7.28;;;2.05;;
60917;SDS011;46792;38.854;-9.384;2023-04-15T01:12:11;10.38;;;2.20;;
60917;SDS011;46792;38.854;-9.384;2023-04-15T01:14:14;8.35;;;2.33;;
60917;SDS011;46792;38.854;-9.384;2023-04-15T01:16:15;5.70;;;2.55;;
60917;SDS011;46792;38.854;-9.384;2023-04-15T01:18:16;7.15;;;2.50;;
60917;SDS011;46792;38.854;-9.384;2023-04-15T01:20:18;5.75;;;1.75;;
60917;SDS011;46792;38.854;-9.384;2023-04-15T01:22:19;9.07;;;2.05;;
60917;SDS011;46792;38.854;-9.384;2023-04-15T01:24:20;4.63;;;1.70;;
60917;SDS011;46792;38.854;-9.384;2023-04-15T01:26:39;15.27;;;2.45;;
60917;SDS011;46792;38.854;-9.384;2023-04-15T01:28:41;5.97;;;2.03;;
60917;SDS011;46792;38.854;-9.384;2023-04-15T01:30:42;3.45;;;1.75;;
60917;SDS011;46792;38.854;-9.384;2023-04-15T01:32:43;6.90;;;1.60;;
60917;SDS011;46792;38.854;-9.384;2023-04-15T01:34:45;6.20;;;2.47;;
60917;SDS011;46792;38.854;-9.384;2023-04-15T01:36:45;11.52;;;1.67;;
60917;SDS011;46792;38.854;-9.384;2023-04-15T01:38:47;9.43;;;1.67;;
60917;SDS011;46792;38.854;-9.384;2023-04-15T01:40:48;2.50;;;1.63;;
60917;SDS011;46792;38.854;-9.384;2023-04-15T01:42:48;3.75;;;1.55;;
60917;SDS011;46792;38.854;-9.384;2023-04-15T01:44:49;5.90;;;1.70;;
60917;SDS011;46792;38.854;-9.384;2023-04-15T01:46:50;6.88;;;1.98;;
60917;SDS011;46792;38.854;-9.384;2023-04-15T01:48:50;7.20;;;2.28;;
60917;SDS011;46792;38.854;-9.384;2023-04-15T01:51:09;4.68;;;1.63;;
60917;SDS011;46792;38.854;-9.384;2023-04-15T01:53:10;3.80;;;1.48;;
60917;SDS011;46792;38.854;-9.384;2023-04-15T01:55:11;6.60;;;1.45;;
60917;SDS011;46792;38.854;-9.384;2023-04-15T01:57:30;5.47;;;1.60;;
60917;SDS011;46792;38.854;-9.384;2023-04-15T01:59:31;1.85;;;1.50;;
60917;SDS011;46792;38.854;-9.384;2023-04-15T02:01:32;3.20;;;1.50;;
60917;SDS011;46792;38.854;-9.384;2023-04-15T02:03:33;7.97;;;1.80;;
60917;SDS011;46792;38.854;-9.384;2023-04-15T02:05:34;13.35;;;2.20;;
60917;SDS011;46792;38.854;-9.384;2023-04-15T02:07:55;13.35;;;2.53;;
60917;SDS011;46792;38.854;-9.384;2023-04-15T02:12:55;13.95;;;2.17;;
60917;SDS011;46792;38.854;-9.384;2023-04-15T02:14:56;12.65;;;2.47;;
60917;SDS011;46792;38.854;-9.384;2023-04-15T02:16:57;9.23;;;2.50;;
60917;SDS011;46792;38.854;-9.384;2023-04-15T02:19:01;9.48;;;2.70;;
60917;SDS011;46792;38.854;-9.384;2023-04-15T02:21:03;9.05;;;2.55;;
60917;SDS011;46792;38.854;-9.384;2023-04-15T02:23:06;7.18;;;2.50;;
60917;SDS011;46792;38.854;-9.384;2023-04-15T02:25:07;13.35;;;2.72;;
60917;SDS011;46792;38.854;-9.384;2023-04-15T02:27:08;22.25;;;2.95;;
60917;SDS011;46792;38.854;-9.384;2023-04-15T02:31:28;19.17;;;3.95;;
60917;SDS011;46792;38.854;-9.384;2023-04-15T02:33:47;17.42;;;3.95;;
60917;SDS011;46792;38.854;-9.384;2023-04-15T02:35:48;17.30;;;3.40;;
60917;SDS011;46792;38.854;-9.384;2023-04-15T02:37:50;16.67;;;3.80;;
60917;SDS011;46792;38.854;-9.384;2023-04-15T02:39:55;11.00;;;2.42;;
60917;SDS011;46792;38.854;-9.384;2023-04-15T02:42:14;14.35;;;2.90;;
60917;SDS011;46792;38.854;-9.384;2023-04-15T02:44:33;7.43;;;2.13;;
60917;SDS011;46792;38.854;-9.384;2023-04-15T02:46:55;9.90;;;2.03;;
60917;SDS011;46792;38.854;-9.384;2023-04-15T02:48:56;9.60;;;1.63;;
60917;SDS011;46792;38.854;-9.384;2023-04-15T02:56:09;10.60;;;2.05;;
60917;SDS011;46792;38.854;-9.384;2023-04-15T02:58:11;7.00;;;1.73;;
60917;SDS011;46792;38.854;-9.384;2023-04-15T03:00:11;8.32;;;2.03;;
60917;SDS011;46792;38.854;-9.384;2023-04-15T03:02:18;10.38;;;2.28;;
60917;SDS011;46792;38.854;-9.384;2023-04-15T03:04:19;13.50;;;2.63;;
60917;SDS011;46792;38.854;-9.384;2023-04-15T03:06:20;12.95;;;3.30;;
60917;SDS011;46792;38.854;-9.384;2023-04-15T03:08:23;13.75;;;2.70;;
60917;SDS011;46792;38.854;-9.384;2023-04-15T03:10:24;11.98;;;2.40;;
60917;SDS011;46792;38.854;-9.384;2023-04-15T03:15:22;11.60;;;2.08;;
60917;SDS011;46792;38.854;-9.384;2023-04-15T03:17:41;9.68;;;2.00;;
60917;SDS011;46792;38.854;-9.384;2023-04-15T03:19:42;3.53;;;1.70;;
60917;SDS011;46792;38.854;-9.384;2023-04-15T03:22:02;13.30;;;2.70;;
60917;SDS011;46792;38.854;-9.384;2023-04-15T03:24:21;10.23;;;2.17;;
60917;SDS011;46792;38.854;-9.384;2023-04-15T03:26:28;11.38;;;3.50;;
60917;SDS011;46792;38.854;-9.384;2023-04-15T03:28:34;14.45;;;1.88;;
60917;SDS011;46792;38.854;-9.384;2023-04-15T03:30:35;7.95;;;2.50;;
60917;SDS011;46792;38.854;-9.384;2023-04-15T03:34:55;8.20;;;2.20;;
60917;SDS011;46792;38.854;-9.384;2023-04-15T03:37:14;6.70;;;1.88;;
60917;SDS011;46792;38.854;-9.384;2023-04-15T03:39:15;8.77;;;2.03;;
60917;SDS011;46792;38.854;-9.384;2023-04-15T03:41:16;6.38;;;1.88;;
60917;SDS011;46792;38.854;-9.384;2023-04-15T03:43:17;2.45;;;1.58;;
60917;SDS011;46792;38.854;-9.384;2023-04-15T03:45:17;2.67;;;1.65;;
60917;SDS011;46792;38.854;-9.384;2023-04-15T03:47:18;4.50;;;1.30;;
60917;SDS011;46792;38.854;-9.384;2023-04-15T03:49:19;5.13;;;1.85;;
60917;SDS011;46792;38.854;-9.384;2023-04-15T03:51:22;3.45;;;1.50;;
60917;SDS011;46792;38.854;-9.384;2023-04-15T03:53:22;3.72;;;1.42;;
60917;SDS011;46792;38.854;-9.384;2023-04-15T03:55:23;4.65;;;1.83;;
60917;SDS011;46792;38.854;-9.384;2023-04-15T03:57:24;9.43;;;2.08;;
60917;SDS011;46792;38.854;-9.384;2023-04-15T03:59:25;4.43;;;1.35;;
60917;SDS011;46792;38.854;-9.384;2023-04-15T04:01:26;11.57;;;2.00;;
60917;SDS011;46792;38.854;-9.384;2023-04-15T04:03:45;3.55;;;1.15;;
60917;SDS011;46792;38.854;-9.384;2023-04-15T04:05:46;5.05;;;1.45;;
60917;SDS011;46792;38.854;-9.384;2023-04-15T04:07:46;6.05;;;1.92;;
60917;SDS011;46792;38.854;-9.384;2023-04-15T04:09:47;5.10;;;1.30;;
60917;SDS011;46792;38.854;-9.384;2023-04-15T04:11:47;7.47;;;1.58;;
60917;SDS011;46792;38.854;-9.384;2023-04-15T04:13:48;12.65;;;2.33;;
60917;SDS011;46792;38.854;-9.384;2023-04-15T04:15:49;17.00;;;3.13;;
60917;SDS011;46792;38.854;-9.384;2023-04-15T04:17:50;17.20;;;2.78;;
60917;SDS011;46792;38.854;-9.384;2023-04-15T04:19:50;21.77;;;4.03;;
60917;SDS011;46792;38.854;-9.384;2023-04-15T04:21:51;23.00;;;3.97;;
60917;SDS011;46792;38.854;-9.384;2023-04-15T04:23:51;17.40;;;3.50;;
60917;SDS011;46792;38.854;-9.384;2023-04-15T04:25:52;19.85;;;3.35;;
60917;SDS011;46792;38.854;-9.384;2023-04-15T04:27:53;18.42;;;3.92;;
60917;SDS011;46792;38.854;-9.384;2023-04-15T04:29:53;21.40;;;4.65;;
60917;SDS011;46792;38.854;-9.384;2023-04-15T04:32:12;7.07;;;2.88;;
60917;SDS011;46792;38.854;-9.384;2023-04-15T04:34:32;15.48;;;3.10;;
60917;SDS011;46792;38.854;-9.384;2023-04-15T04:36:32;16.48;;;2.45;;
60917;SDS011;46792;38.854;-9.384;2023-04-15T04:38:33;12.02;;;3.05;;
60917;SDS011;46792;38.854;-9.384;2023-04-15T04:40:33;12.52;;;2.65;;
60917;SDS011;46792;38.854;-9.384;2023-04-15T04:42:52;11.43;;;3.00;;
60917;SDS011;46792;38.854;-9.384;2023-04-15T04:45:11;8.38;;;2.35;;
60917;SDS011;46792;38.854;-9.384;2023-04-15T04:47:12;6.75;;;2.22;;
60917;SDS011;46792;38.854;-9.384;2023-04-15T04:49:13;6.40;;;2.58;;
60917;SDS011;46792;38.854;-9.384;2023-04-15T04:51:13;5.72;;;1.70;;
60917;SDS011;46792;38.854;-9.384;2023-04-15T04:53:14;8.88;;;1.80;;
60917;SDS011;46792;38.854;-9.384;2023-04-15T04:55:15;9.30;;;2.50;;
60917;SDS011;46792;38.854;-9.384;2023-04-15T04:57:15;9.55;;;2.60;;
60917;SDS011;46792;38.854;-9.384;2023-04-15T04:59:35;6.05;;;2.58;;
60917;SDS011;46792;38.854;-9.384;2023-04-15T05:01:54;5.78;;;2.55;;
60917;SDS011;46792;38.854;-9.384;2023-04-15T05:04:14;8.93;;;2.75;;
60917;SDS011;46792;38.854;-9.384;2023-04-15T05:06:14;9.07;;;3.20;;
60917;SDS011;46792;38.854;-9.384;2023-04-15T05:08:15;11.73;;;2.88;;
60917;SDS011;46792;38.854;-9.384;2023-04-15T05:10:16;6.13;;;2.90;;
60917;SDS011;46792;38.854;-9.384;2023-04-15T05:12:17;8.02;;;3.20;;
60917;SDS011;46792;38.854;-9.384;2023-04-15T05:14:18;18.70;;;3.08;;
60917;SDS011;46792;38.854;-9.384;2023-04-15T05:16:36;12.02;;;3.03;;
60917;SDS011;46792;38.854;-9.384;2023-04-15T05:18:37;16.55;;;2.70;;
60917;SDS011;46792;38.854;-9.384;2023-04-15T05:20:38;12.18;;;2.60;;
60917;SDS011;46792;38.854;-9.384;2023-04-15T05:22:38;14.15;;;2.97;;
60917;SDS011;46792;38.854;-9.384;2023-04-15T05:24:39;8.25;;;3.80;;
60917;SDS011;46792;38.854;-9.384;2023-04-15T05:26:40;7.97;;;3.08;;
60917;SDS011;46792;38.854;-9.384;2023-04-15T05:28:41;9.93;;;3.05;;
60917;SDS011;46792;38.854;-9.384;2023-04-15T05:30:41;11.43;;;2.35;;
60917;SDS011;46792;38.854;-9.384;2023-04-15T05:32:42;11.60;;;3.17;;
60917;SDS011;46792;38.854;-9.384;2023-04-15T05:35:01;12.52;;;2.55;;
60917;SDS011;46792;38.854;-9.384;2023-04-15T05:37:02;3.60;;;1.80;;
60917;SDS011;46792;38.854;-9.384;2023-04-15T05:39:02;6.97;;;2.30;;
60917;SDS011;46792;38.854;-9.384;2023-04-15T05:41:03;3.03;;;1.63;;
60917;SDS011;46792;38.854;-9.384;2023-04-15T05:43:04;3.42;;;1.90;;
60917;SDS011;46792;38.854;-9.384;2023-04-15T05:45:04;2.72;;;1.90;;
60917;SDS011;46792;38.854;-9.384;2023-04-15T05:47:08;4.25;;;1.45;;
60917;SDS011;46792;38.854;-9.384;2023-04-15T05:49:28;4.50;;;2.10;;
60917;SDS011;46792;38.854;-9.384;2023-04-15T05:51:29;3.92;;;1.77;;
60917;SDS011;46792;38.854;-9.384;2023-04-15T05:53:30;2.35;;;1.60;;
60917;SDS011;46792;38.854;-9.384;2023-04-15T05:55:49;3.00;;;2.50;;
60917;SDS011;46792;38.854;-9.384;2023-04-15T05:57:50;6.80;;;2.22;;
60917;SDS011;46792;38.854;-9.384;2023-04-15T05:59:51;4.53;;;2.47;;
60917;SDS011;46792;38.854;-9.384;2023-04-15T06:01:52;6.10;;;2.20;;
60917;SDS011;46792;38.854;-9.384;2023-04-15T06:03:53;4.50;;;2.15;;
60917;SDS011;46792;38.854;-9.384;2023-04-15T06:05:53;4.72;;;2.30;;
60917;SDS011;46792;38.854;-9.384;2023-04-15T06:07:54;6.18;;;2.30;;
60917;SDS011;46792;38.854;-9.384;2023-04-15T06:10:13;2.70;;;1.70;;
60917;SDS011;46792;38.854;-9.384;2023-04-15T06:12:14;7.38;;;2.20;;
60917;SDS011;46792;38.854;-9.384;2023-04-15T06:14:16;7.32;;;3.13;;
60917;SDS011;46792;38.854;-9.384;2023-04-15T06:16:16;5.15;;;2.47;;
60917;SDS011;46792;38.854;-9.384;2023-04-15T06:18:17;13.63;;;2.85;;
60917;SDS011;46792;38.854;-9.384;2023-04-15T06:20:17;6.90;;;3.10;;
60917;SDS011;46792;38.854;-9.384;2023-04-15T06:22:18;6.32;;;3.15;;
60917;SDS011;46792;38.854;-9.384;2023-04-15T06:24:19;6.28;;;3.22;;
60917;SDS011;46792;38.854;-9.384;2023-04-15T06:26:20;5.50;;;3.35;;
60917;SDS011;46792;38.854;-9.384;2023-04-15T06:28:20;4.20;;;2.78;;
60917;SDS011;46792;38.854;-9.384;2023-04-15T06:30:21;8.93;;;3.33;;
60917;SDS011;46792;38.854;-9.384;2023-04-15T06:32:21;5.43;;;2.97;;
60917;SDS011;46792;38.854;-9.384;2023-04-15T06:34:22;8.30;;;2.92;;
60917;SDS011;46792;38.854;-9.384;2023-04-15T06:36:22;6.68;;;3.05;;
60917;SDS011;46792;38.854;-9.384;2023-04-15T06:38:23;9.55;;;2.83;;
60917;SDS011;46792;38.854;-9.384;2023-04-15T06:40:24;14.07;;;3.55;;
60917;SDS011;46792;38.854;-9.384;2023-04-15T06:42:24;6.30;;;3.25;;
60917;SDS011;46792;38.854;-9.384;2023-04-15T06:44:25;12.98;;;3.15;;
60917;SDS011;46792;38.854;-9.384;2023-04-15T06:46:26;9.73;;;3.38;;
60917;SDS011;46792;38.854;-9.384;2023-04-15T06:48:26;7.78;;;3.75;;
60917;SDS011;46792;38.854;-9.384;2023-04-15T06:50:27;11.20;;;3.78;;
60917;SDS011;46792;38.854;-9.384;2023-04-15T06:52:42;7.55;;;3.65;;
60917;SDS011;46792;38.854;-9.384;2023-04-15T06:54:43;6.07;;;3.38;;
60917;SDS011;46792;38.854;-9.384;2023-04-15T06:56:44;8.55;;;3.00;;
60917;SDS011;46792;38.854;-9.384;2023-04-15T06:58:44;11.70;;;3.40;;
60917;SDS011;46792;38.854;-9.384;2023-04-15T07:00:45;11.70;;;4.03;;
60917;SDS011;46792;38.854;-9.384;2023-04-15T07:02:47;11.35;;;3.33;;
60917;SDS011;46792;38.854;-9.384;2023-04-15T07:04:47;4.82;;;3.00;;
60917;SDS011;46792;38.854;-9.384;2023-04-15T07:06:48;12.55;;;2.90;;
60917;SDS011;46792;38.854;-9.384;2023-04-15T07:08:49;6.85;;;2.60;;
60917;SDS011;46792;38.854;-9.384;2023-04-15T07:10:49;6.65;;;2.30;;
60917;SDS011;46792;38.854;-9.384;2023-04-15T07:12:50;9.88;;;2.78;;
60917;SDS011;46792;38.854;-9.384;2023-04-15T07:14:51;6.45;;;2.50;;
60917;SDS011;46792;38.854;-9.384;2023-04-15T07:16:52;3.80;;;2.08;;
60917;SDS011;46792;38.854;-9.384;2023-04-15T07:18:52;4.35;;;1.85;;
60917;SDS011;46792;38.854;-9.384;2023-04-15T07:20:53;1.73;;;1.60;;
60917;SDS011;46792;38.854;-9.384;2023-04-15T07:22:53;3.40;;;1.67;;
60917;SDS011;46792;38.854;-9.384;2023-04-15T07:24:54;3.50;;;1.65;;
60917;SDS011;46792;38.854;-9.384;2023-04-15T07:26:55;2.00;;;1.55;;
60917;SDS011;46792;38.854;-9.384;2023-04-15T07:29:16;4.53;;;2.00;;
60917;SDS011;46792;38.854;-9.384;2023-04-15T07:31:16;1.80;;;1.67;;
60917;SDS011;46792;38.854;-9.384;2023-04-15T07:33:17;2.10;;;1.60;;
60917;SDS011;46792;38.854;-9.384;2023-04-15T07:35:18;3.55;;;1.50;;
60917;SDS011;46792;38.854;-9.384;2023-04-15T07:37:20;2.78;;;1.50;;
60917;SDS011;46792;38.854;-9.384;2023-04-15T07:39:21;1.77;;;1.48;;
60917;SDS011;46792;38.854;-9.384;2023-04-15T07:41:22;2.08;;;1.40;;
60917;SDS011;46792;38.854;-9.384;2023-04-15T07:46:19;2.90;;;1.60;;
60917;SDS011;46792;38.854;-9.384;2023-04-15T07:48:38;3.75;;;1.40;;
60917;SDS011;46792;38.854;-9.384;2023-04-15T07:50:58;2.55;;;1.45;;
60917;SDS011;46792;38.854;-9.384;2023-04-15T07:52:59;3.10;;;1.40;;
60917;SDS011;46792;38.854;-9.384;2023-04-15T07:55:00;1.40;;;1.30;;
60917;SDS011;46792;38.854;-9.384;2023-04-15T07:57:00;1.98;;;1.70;;
60917;SDS011;46792;38.854;-9.384;2023-04-15T07:59:02;1.60;;;1.50;;
60917;SDS011;46792;38.854;-9.384;2023-04-15T08:01:03;2.03;;;1.50;;
60917;SDS011;46792;38.854;-9.384;2023-04-15T08:03:04;3.30;;;1.25;;
60917;SDS011;46792;38.854;-9.384;2023-04-15T08:05:05;2.00;;;1.33;;
60917;SDS011;46792;38.854;-9.384;2023-04-15T08:07:06;2.65;;;1.65;;
60917;SDS011;46792;38.854;-9.384;2023-04-15T08:09:07;3.35;;;1.60;;
60917;SDS011;46792;38.854;-9.384;2023-04-15T08:11:11;1.85;;;1.40;;
60917;SDS011;46792;38.854;-9.384;2023-04-15T08:13:12;3.08;;;1.40;;
60917;SDS011;46792;38.854;-9.384;2023-04-15T08:15:13;1.50;;;1.40;;
60917;SDS011;46792;38.854;-9.384;2023-04-15T08:17:13;2.80;;;1.40;;
60917;SDS011;46792;38.854;-9.384;2023-04-15T08:19:14;1.17;;;1.15;;
60917;SDS011;46792;38.854;-9.384;2023-04-15T08:21:16;3.28;;;1.20;;
60917;SDS011;46792;38.854;-9.384;2023-04-15T08:23:17;7.40;;;1.40;;
60917;SDS011;46792;38.854;-9.384;2023-04-15T08:25:18;3.10;;;1.42;;
60917;SDS011;46792;38.854;-9.384;2023-04-15T08:27:19;4.93;;;1.48;;
60917;SDS011;46792;38.854;-9.384;2023-04-15T08:29:19;3.45;;;1.60;;
60917;SDS011;46792;38.854;-9.384;2023-04-15T08:31:39;1.67;;;1.58;;
60917;SDS011;46792;38.854;-9.384;2023-04-15T08:33:39;1.50;;;1.40;;
60917;SDS011;46792;38.854;-9.384;2023-04-15T08:35:40;2.20;;;1.65;;
60917;SDS011;46792;38.854;-9.384;2023-04-15T08:37:41;2.67;;;1.50;;
60917;SDS011;46792;38.854;-9.384;2023-04-15T08:39:41;4.03;;;1.40;;
60917;SDS011;46792;38.854;-9.384;2023-04-15T08:41:45;3.67;;;2.00;;
60917;SDS011;46792;38.854;-9.384;2023-04-15T08:43:53;3.22;;;1.45;;
60917;SDS011;46792;38.854;-9.384;2023-04-15T08:45:57;2.42;;;1.60;;
60917;SDS011;46792;38.854;-9.384;2023-04-15T08:48:00;3.10;;;1.80;;
60917;SDS011;46792;38.854;-9.384;2023-04-15T08:50:04;3.17;;;1.90;;
60917;SDS011;46792;38.854;-9.384;2023-04-15T08:52:29;2.33;;;1.80;;
60917;SDS011;46792;38.854;-9.384;2023-04-15T08:54:49;1.70;;;1.60;;
60917;SDS011;46792;38.854;-9.384;2023-04-15T08:57:11;4.57;;;2.13;;
60917;SDS011;46792;38.854;-9.384;2023-04-15T08:59:11;4.88;;;1.65;;
60917;SDS011;46792;38.854;-9.384;2023-04-15T09:01:12;2.30;;;1.67;;
60917;SDS011;46792;38.854;-9.384;2023-04-15T09:03:13;4.68;;;1.27;;
60917;SDS011;46792;38.854;-9.384;2023-04-15T09:05:13;1.20;;;1.10;;
60917;SDS011;46792;38.854;-9.384;2023-04-15T09:07:15;2.15;;;1.92;;
60917;SDS011;46792;38.854;-9.384;2023-04-15T09:09:16;7.32;;;1.90;;
60917;SDS011;46792;38.854;-9.384;2023-04-15T09:16:14;3.17;;;2.90;;
60917;SDS011;46792;38.854;-9.384;2023-04-15T09:18:28;3.70;;;1.80;;
60917;SDS011;46792;38.854;-9.384;2023-04-15T09:20:38;3.63;;;1.92;;
60917;SDS011;46792;38.854;-9.384;2023-04-15T09:22:42;2.83;;;1.80;;
60917;SDS011;46792;38.854;-9.384;2023-04-15T09:24:44;3.53;;;1.98;;
60917;SDS011;46792;38.854;-9.384;2023-04-15T09:26:45;1.90;;;1.73;;
60917;SDS011;46792;38.854;-9.384;2023-04-15T09:28:46;5.53;;;1.92;;
60917;SDS011;46792;38.854;-9.384;2023-04-15T09:31:05;7.72;;;1.63;;
60917;SDS011;46792;38.854;-9.384;2023-04-15T09:33:25;3.22;;;1.52;;
60917;SDS011;46792;38.854;-9.384;2023-04-15T09:35:27;7.25;;;1.88;;
60917;SDS011;46792;38.854;-9.384;2023-04-15T09:37:33;3.95;;;1.42;;
60917;SDS011;46792;38.854;-9.384;2023-04-15T09:39:53;4.00;;;1.88;;
60917;SDS011;46792;38.854;-9.384;2023-04-15T09:42:13;2.38;;;1.42;;
60917;SDS011;46792;38.854;-9.384;2023-04-15T09:44:23;4.45;;;1.48;;
60917;SDS011;46792;38.854;-9.384;2023-04-15T09:46:42;3.58;;;1.63;;
60917;SDS011;46792;38.854;-9.384;2023-04-15T09:48:43;5.43;;;1.70;;
60917;SDS011;46792;38.854;-9.384;2023-04-15T09:51:02;8.27;;;1.50;;
60917;SDS011;46792;38.854;-9.384;2023-04-15T09:55:24;3.17;;;1.75;;
60917;SDS011;46792;38.854;-9.384;2023-04-15T09:57:31;5.20;;;1.50;;
60917;SDS011;46792;38.854;-9.384;2023-04-15T09:59:34;4.07;;;1.90;;
60917;SDS011;46792;38.854;-9.384;2023-04-15T10:01:35;8.52;;;2.03;;
60917;SDS011;46792;38.854;-9.384;2023-04-15T10:03:36;3.17;;;2.38;;
60917;SDS011;46792;38.854;-9.384;2023-04-15T10:05:41;6.35;;;1.73;;
60917;SDS011;46792;38.854;-9.384;2023-04-15T10:07:42;3.92;;;1.52;;
60917;SDS011;46792;38.854;-9.384;2023-04-15T10:09:44;6.47;;;1.77;;
60917;SDS011;46792;38.854;-9.384;2023-04-15T10:11:46;5.03;;;1.60;;
60917;SDS011;46792;38.854;-9.384;2023-04-15T10:13:49;2.30;;;1.38;;
60917;SDS011;46792;38.854;-9.384;2023-04-15T10:19:01;2.78;;;1.67;;
60917;SDS011;46792;38.854;-9.384;2023-04-15T10:21:03;4.32;;;1.80;;
60917;SDS011;46792;38.854;-9.384;2023-04-15T10:23:05;4.78;;;1.63;;
60917;SDS011;46792;38.854;-9.384;2023-04-15T10:25:07;8.18;;;2.50;;
60917;SDS011;46792;38.854;-9.384;2023-04-15T10:27:11;5.88;;;1.90;;
60917;SDS011;46792;38.854;-9.384;2023-04-15T10:29:12;6.05;;;1.92;;
60917;SDS011;46792;38.854;-9.384;2023-04-15T10:31:13;3.08;;;1.83;;
60917;SDS011;46792;38.854;-9.384;2023-04-15T10:33:15;14.70;;;2.33;;
60917;SDS011;46792;38.854;-9.384;2023-04-15T10:35:19;7.90;;;2.05;;
60917;SDS011;46792;38.854;-9.384;2023-04-15T10:37:39;9.75;;;2.67;;
60917;SDS011;46792;38.854;-9.384;2023-04-15T10:39:41;5.85;;;1.73;;
60917;SDS011;46792;38.854;-9.384;2023-04-15T10:41:42;7.18;;;1.63;;
60917;SDS011;46792;38.854;-9.384;2023-04-15T10:43:47;3.00;;;1.88;;
60917;SDS011;46792;38.854;-9.384;2023-04-15T10:45:49;14.10;;;2.40;;
60917;SDS011;46792;38.854;-9.384;2023-04-15T10:47:51;8.57;;;3.10;;
60917;SDS011;46792;38.854;-9.384;2023-04-15T10:49:57;5.13;;;3.17;;
60917;SDS011;46792;38.854;-9.384;2023-04-15T10:52:00;7.22;;;2.28;;
60917;SDS011;46792;38.854;-9.384;2023-04-15T10:54:02;11.85;;;2.38;;
60917;SDS011;46792;38.854;-9.384;2023-04-15T10:56:08;11.82;;;3.00;;
60917;SDS011;46792;38.854;-9.384;2023-04-15T10:58:09;15.73;;;3.20;;
60917;SDS011;46792;38.854;-9.384;2023-04-15T11:00:29;18.65;;;4.30;;
60917;SDS011;46792;38.854;-9.384;2023-04-15T11:02:54;8.77;;;2.50;;
60917;SDS011;46792;38.854;-9.384;2023-04-15T11:04:57;12.50;;;4.07;;
60917;SDS011;46792;38.854;-9.384;2023-04-15T11:07:04;11.65;;;2.83;;
60917;SDS011;46792;38.854;-9.384;2023-04-15T11:09:06;11.65;;;2.95;;
60917;SDS011;46792;38.854;-9.384;2023-04-15T11:14:24;18.33;;;2.95;;
60917;SDS011;46792;38.854;-9.384;2023-04-15T11:16:25;11.73;;;3.40;;
60917;SDS011;46792;38.854;-9.384;2023-04-15T11:18:27;11.38;;;3.13;;
60917;SDS011;46792;38.854;-9.384;2023-04-15T11:20:29;12.52;;;2.42;;
60917;SDS011;46792;38.854;-9.384;2023-04-15T11:22:31;8.63;;;2.63;;
60917;SDS011;46792;38.854;-9.384;2023-04-15T11:24:32;11.88;;;3.00;;
60917;SDS011;46792;38.854;-9.384;2023-04-15T11:26:33;11.32;;;3.35;;
60917;SDS011;46792;38.854;-9.384;2023-04-15T11:28:33;14.35;;;3.13;;
60917;SDS011;46792;38.854;-9.384;2023-04-15T11:30:54;10.20;;;2.92;;
60917;SDS011;46792;38.854;-9.384;2023-04-15T11:32:59;15.85;;;2.83;;
60917;SDS011;46792;38.854;-9.384;2023-04-15T11:35:04;7.47;;;3.20;;
60917;SDS011;46792;38.854;-9.384;2023-04-15T11:37:04;16.92;;;4.97;;
60917;SDS011;46792;38.854;-9.384;2023-04-15T11:39:05;16.15;;;3.40;;
60917;SDS011;46792;38.854;-9.384;2023-04-15T11:41:06;15.27;;;3.05;;
60917;SDS011;46792;38.854;-9.384;2023-04-15T11:45:08;20.73;;;4.40;;
60917;SDS011;46792;38.854;-9.384;2023-04-15T11:47:23;14.10;;;3.78;;
60917;SDS011;46792;38.854;-9.384;2023-04-15T11:49:29;11.07;;;2.95;;
60917;SDS011;46792;38.854;-9.384;2023-04-15T11:51:33;20.80;;;3.85;;
60917;SDS011;46792;38.854;-9.384;2023-04-15T11:53:44;15.30;;;2.90;;
60917;SDS011;46792;38.854;-9.384;2023-04-15T11:55:47;12.40;;;2.85;;
60917;SDS011;46792;38.854;-9.384;2023-04-15T11:57:49;15.15;;;3.45;;
60917;SDS011;46792;38.854;-9.384;2023-04-15T11:59:50;11.35;;;2.60;;
60917;SDS011;46792;38.854;-9.384;2023-04-15T12:02:12;20.42;;;3.33;;
60917;SDS011;46792;38.854;-9.384;2023-04-15T12:04:34;11.45;;;2.60;;
60917;SDS011;46792;38.854;-9.384;2023-04-15T12:06:35;14.57;;;2.85;;
60917;SDS011;46792;38.854;-9.384;2023-04-15T12:08:47;15.90;;;2.95;;
60917;SDS011;46792;38.854;-9.384;2023-04-15T12:10:48;7.40;;;2.95;;
60917;SDS011;46792;38.854;-9.384;2023-04-15T12:12:48;11.50;;;2.95;;
60917;SDS011;46792;38.854;-9.384;2023-04-15T12:14:50;12.50;;;3.17;;
60917;SDS011;46792;38.854;-9.384;2023-04-15T12:16:51;10.93;;;3.08;;
60917;SDS011;46792;38.854;-9.384;2023-04-15T12:18:58;15.73;;;3.88;;
60917;SDS011;46792;38.854;-9.384;2023-04-15T12:21:03;12.52;;;3.25;;
60917;SDS011;46792;38.854;-9.384;2023-04-15T12:23:10;20.83;;;3.45;;
60917;SDS011;46792;38.854;-9.384;2023-04-15T12:25:11;19.45;;;3.70;;
60917;SDS011;46792;38.854;-9.384;2023-04-15T12:27:13;23.08;;;4.00;;
60917;SDS011;46792;38.854;-9.384;2023-04-15T12:29:16;21.20;;;3.40;;
60917;SDS011;46792;38.854;-9.384;2023-04-15T12:31:17;17.88;;;3.83;;
60917;SDS011;46792;38.854;-9.384;2023-04-15T12:33:19;12.57;;;3.05;;
60917;SDS011;46792;38.854;-9.384;2023-04-15T12:35:19;13.65;;;3.50;;
60917;SDS011;46792;38.854;-9.384;2023-04-15T12:37:22;12.27;;;3.15;;
60917;SDS011;46792;38.854;-9.384;2023-04-15T12:39:41;14.88;;;3.47;;
60917;SDS011;46792;38.854;-9.384;2023-04-15T12:42:02;10.30;;;3.45;;
60917;SDS011;46792;38.854;-9.384;2023-04-15T12:44:22;19.17;;;3.38;;
60917;SDS011;46792;38.854;-9.384;2023-04-15T12:46:42;14.65;;;3.55;;
60917;SDS011;46792;38.854;-9.384;2023-04-15T12:48:43;12.80;;;3.35;;
60917;SDS011;46792;38.854;-9.384;2023-04-15T12:50:43;7.72;;;2.65;;
60917;SDS011;46792;38.854;-9.384;2023-04-15T12:52:44;14.32;;;3.63;;
60917;SDS011;46792;38.854;-9.384;2023-04-15T12:54:45;10.73;;;3.63;;
60917;SDS011;46792;38.854;-9.384;2023-04-15T12:56:45;12.32;;;3.20;;